sensor_id;sensor_type;location;lat;lon;timestamp;P1;durP1;ratioP1;P2;durP2;ratioP2
17361;SDS011;8798;51.938;4.348;2022-09-03T16:01:36;2.97;;;1.60;;
17361;SDS011;8798;51.938;4.348;2022-09-03T16:04:26;1.55;;;1.40;;
17361;SDS011;8798;51.938;4.348;2022-09-03T16:07:11;5.47;;;2.10;;
17361;SDS011;8798;51.938;4.348;2022-09-03T16:10:09;2.55;;;1.77;;
17361;SDS011;8798;51.938;4.348;2022-09-03T16:13:03;5.38;;;1.80;;
17361;SDS011;8798;51.938;4.348;2022-09-03T16:15:50;2.30;;;1.42;;
17361;SDS011;8798;51.938;4.348;2022-09-03T16:18:31;2.67;;;1.40;;
17361;SDS011;8798;51.938;4.348;2022-09-03T16:21:10;1.67;;;1.48;;
17361;SDS011;8798;51.938;4.348;2022-09-03T16:23:50;4.20;;;1.90;;
17361;SDS011;8798;51.938;4.348;2022-09-03T16:26:30;3.10;;;1.70;;
17361;SDS011;8798;51.938;4.348;2022-09-03T16:29:06;5.50;;;2.08;;
17361;SDS011;8798;51.938;4.348;2022-09-03T16:31:50;2.17;;;1.80;;
17361;SDS011;8798;51.938;4.348;2022-09-03T16:34:41;3.10;;;1.40;;
17361;SDS011;8798;51.938;4.348;2022-09-03T16:37:30;2.35;;;1.60;;
17361;SDS011;8798;51.938;4.348;2022-09-03T16:40:16;2.28;;;1.60;;
17361;SDS011;8798;51.938;4.348;2022-09-03T16:42:53;3.22;;;1.60;;
17361;SDS011;8798;51.938;4.348;2022-09-03T16:46:03;5.07;;;1.60;;
17361;SDS011;8798;51.938;4.348;2022-09-03T16:48:50;3.20;;;1.75;;
17361;SDS011;8798;51.938;4.348;2022-09-03T16:51:42;1.98;;;1.63;;
17361;SDS011;8798;51.938;4.348;2022-09-03T16:54:26;2.45;;;1.77;;
17361;SDS011;8798;51.938;4.348;2022-09-03T16:57:12;3.28;;;1.60;;
17361;SDS011;8798;51.938;4.348;2022-09-03T17:00:03;2.53;;;1.65;;
17361;SDS011;8798;51.938;4.348;2022-09-03T17:09:21;2.78;;;1.70;;
17361;SDS011;8798;51.938;4.348;2022-09-03T17:12:09;1.95;;;1.65;;
17361;SDS011;8798;51.938;4.348;2022-09-03T17:14:59;2.60;;;1.60;;
17361;SDS011;8798;51.938;4.348;2022-09-03T17:18:04;3.65;;;1.98;;
17361;SDS011;8798;51.938;4.348;2022-09-03T17:20:51;2.20;;;1.63;;
17361;SDS011;8798;51.938;4.348;2022-09-03T17:23:59;5.10;;;1.73;;
17361;SDS011;8798;51.938;4.348;2022-09-03T17:26:51;2.10;;;1.50;;
17361;SDS011;8798;51.938;4.348;2022-09-03T17:29:34;2.28;;;1.48;;
17361;SDS011;8798;51.938;4.348;2022-09-03T17:32:21;2.22;;;1.40;;
17361;SDS011;8798;51.938;4.348;2022-09-03T17:35:20;4.50;;;1.55;;
17361;SDS011;8798;51.938;4.348;2022-09-03T17:38:10;2.22;;;1.55;;
17361;SDS011;8798;51.938;4.348;2022-09-03T17:41:03;2.15;;;1.42;;
17361;SDS011;8798;51.938;4.348;2022-09-03T17:43:51;2.35;;;1.73;;
17361;SDS011;8798;51.938;4.348;2022-09-03T17:46:41;1.98;;;1.33;;
17361;SDS011;8798;51.938;4.348;2022-09-03T17:49:20;1.60;;;1.40;;
17361;SDS011;8798;51.938;4.348;2022-09-03T17:52:00;2.90;;;1.60;;
17361;SDS011;8798;51.938;4.348;2022-09-03T17:54:40;2.92;;;1.48;;
17361;SDS011;8798;51.938;4.348;2022-09-03T17:57:21;2.53;;;1.50;;
17361;SDS011;8798;51.938;4.348;2022-09-03T18:00:00;2.65;;;1.40;;
17361;SDS011;8798;51.938;4.348;2022-09-03T18:02:38;3.63;;;1.73;;
17361;SDS011;8798;51.938;4.348;2022-09-03T18:05:20;1.67;;;1.50;;
17361;SDS011;8798;51.938;4.348;2022-09-03T18:07:57;2.40;;;1.80;;
17361;SDS011;8798;51.938;4.348;2022-09-03T18:10:40;3.00;;;1.50;;
17361;SDS011;8798;51.938;4.348;2022-09-03T18:13:22;2.03;;;1.50;;
17361;SDS011;8798;51.938;4.348;2022-09-03T18:15:58;2.13;;;1.50;;
17361;SDS011;8798;51.938;4.348;2022-09-03T18:18:41;2.17;;;1.98;;
17361;SDS011;8798;51.938;4.348;2022-09-03T18:21:20;3.13;;;1.73;;
17361;SDS011;8798;51.938;4.348;2022-09-03T18:24:15;3.15;;;1.90;;
17361;SDS011;8798;51.938;4.348;2022-09-03T18:27:20;2.83;;;2.08;;
17361;SDS011;8798;51.938;4.348;2022-09-03T18:30:21;2.90;;;2.38;;
17361;SDS011;8798;51.938;4.348;2022-09-03T18:33:10;2.60;;;2.13;;
17361;SDS011;8798;51.938;4.348;2022-09-03T18:35:59;3.08;;;2.15;;
17361;SDS011;8798;51.938;4.348;2022-09-03T18:38:46;2.50;;;2.03;;
17361;SDS011;8798;51.938;4.348;2022-09-03T18:41:44;3.60;;;1.92;;
17361;SDS011;8798;51.938;4.348;2022-09-03T18:44:44;3.88;;;2.13;;
17361;SDS011;8798;51.938;4.348;2022-09-03T18:47:54;2.00;;;1.73;;
17361;SDS011;8798;51.938;4.348;2022-09-03T18:50:58;3.78;;;1.90;;
17361;SDS011;8798;51.938;4.348;2022-09-03T18:53:52;4.45;;;1.90;;
17361;SDS011;8798;51.938;4.348;2022-09-03T18:57:21;2.80;;;2.10;;
17361;SDS011;8798;51.938;4.348;2022-09-03T19:00:13;2.67;;;2.20;;
17361;SDS011;8798;51.938;4.348;2022-09-03T19:06:30;2.95;;;1.88;;
17361;SDS011;8798;51.938;4.348;2022-09-03T19:09:28;3.47;;;2.35;;
17361;SDS011;8798;51.938;4.348;2022-09-03T19:12:33;2.70;;;2.10;;
17361;SDS011;8798;51.938;4.348;2022-09-03T19:15:38;5.45;;;2.35;;
17361;SDS011;8798;51.938;4.348;2022-09-03T19:18:43;4.53;;;2.10;;
17361;SDS011;8798;51.938;4.348;2022-09-03T19:21:58;3.65;;;2.40;;
17361;SDS011;8798;51.938;4.348;2022-09-03T19:25:03;5.22;;;2.50;;
17361;SDS011;8798;51.938;4.348;2022-09-03T19:31:13;3.00;;;2.38;;
17361;SDS011;8798;51.938;4.348;2022-09-03T19:34:22;4.30;;;2.72;;
17361;SDS011;8798;51.938;4.348;2022-09-03T19:37:30;2.70;;;2.00;;
17361;SDS011;8798;51.938;4.348;2022-09-03T19:40:45;3.38;;;2.42;;
17361;SDS011;8798;51.938;4.348;2022-09-03T19:43:57;3.03;;;2.28;;
17361;SDS011;8798;51.938;4.348;2022-09-03T19:46:58;3.80;;;2.67;;
17361;SDS011;8798;51.938;4.348;2022-09-03T19:49:53;3.70;;;2.75;;
17361;SDS011;8798;51.938;4.348;2022-09-03T19:52:52;4.03;;;2.53;;
17361;SDS011;8798;51.938;4.348;2022-09-03T19:55:43;3.28;;;2.63;;
17361;SDS011;8798;51.938;4.348;2022-09-03T19:58:38;4.18;;;2.33;;
17361;SDS011;8798;51.938;4.348;2022-09-03T20:01:33;3.83;;;2.60;;
17361;SDS011;8798;51.938;4.348;2022-09-03T20:04:28;4.18;;;2.30;;
17361;SDS011;8798;51.938;4.348;2022-09-03T20:07:23;3.95;;;2.40;;
17361;SDS011;8798;51.938;4.348;2022-09-03T20:10:11;3.80;;;2.35;;
17361;SDS011;8798;51.938;4.348;2022-09-03T20:12:54;4.88;;;2.20;;
17361;SDS011;8798;51.938;4.348;2022-09-03T20:15:37;2.95;;;2.50;;
17361;SDS011;8798;51.938;4.348;2022-09-03T20:18:24;3.10;;;2.25;;
17361;SDS011;8798;51.938;4.348;2022-09-03T20:21:16;2.65;;;1.88;;
17361;SDS011;8798;51.938;4.348;2022-09-03T20:24:03;4.35;;;2.25;;
17361;SDS011;8798;51.938;4.348;2022-09-03T20:27:01;4.03;;;2.15;;
17361;SDS011;8798;51.938;4.348;2022-09-03T20:29:45;3.10;;;2.05;;
17361;SDS011;8798;51.938;4.348;2022-09-03T20:32:41;3.53;;;2.47;;
17361;SDS011;8798;51.938;4.348;2022-09-03T20:35:45;3.60;;;2.45;;
17361;SDS011;8798;51.938;4.348;2022-09-03T20:38:41;3.67;;;2.50;;
17361;SDS011;8798;51.938;4.348;2022-09-03T20:41:44;3.20;;;2.25;;
17361;SDS011;8798;51.938;4.348;2022-09-03T20:44:45;2.85;;;1.98;;
17361;SDS011;8798;51.938;4.348;2022-09-03T20:47:33;2.63;;;2.20;;
17361;SDS011;8798;51.938;4.348;2022-09-03T20:50:44;3.08;;;2.20;;
17361;SDS011;8798;51.938;4.348;2022-09-03T20:56:31;4.70;;;2.30;;
17361;SDS011;8798;51.938;4.348;2022-09-03T20:59:12;3.20;;;2.55;;
17361;SDS011;8798;51.938;4.348;2022-09-03T21:02:00;4.18;;;2.25;;
17361;SDS011;8798;51.938;4.348;2022-09-03T21:04:41;4.93;;;2.70;;
17361;SDS011;8798;51.938;4.348;2022-09-03T21:07:19;7.75;;;2.80;;
17361;SDS011;8798;51.938;4.348;2022-09-03T21:10:13;5.00;;;3.42;;
17361;SDS011;8798;51.938;4.348;2022-09-03T21:13:00;4.07;;;2.72;;
17361;SDS011;8798;51.938;4.348;2022-09-03T21:15:42;4.43;;;2.70;;
17361;SDS011;8798;51.938;4.348;2022-09-03T21:18:23;2.88;;;2.58;;
17361;SDS011;8798;51.938;4.348;2022-09-03T21:21:11;2.60;;;2.25;;
17361;SDS011;8798;51.938;4.348;2022-09-03T21:23:48;3.75;;;2.65;;
17361;SDS011;8798;51.938;4.348;2022-09-03T21:26:31;3.95;;;2.47;;
17361;SDS011;8798;51.938;4.348;2022-09-03T21:29:20;5.63;;;2.65;;
17361;SDS011;8798;51.938;4.348;2022-09-03T21:32:03;3.65;;;2.30;;
17361;SDS011;8798;51.938;4.348;2022-09-03T21:34:38;4.18;;;2.85;;
17361;SDS011;8798;51.938;4.348;2022-09-03T21:37:20;4.00;;;2.40;;
17361;SDS011;8798;51.938;4.348;2022-09-03T21:39:52;3.65;;;2.47;;
17361;SDS011;8798;51.938;4.348;2022-09-03T21:42:31;3.30;;;2.25;;
17361;SDS011;8798;51.938;4.348;2022-09-03T21:45:10;5.63;;;2.45;;
17361;SDS011;8798;51.938;4.348;2022-09-03T21:47:50;3.40;;;2.60;;
17361;SDS011;8798;51.938;4.348;2022-09-03T21:50:34;4.22;;;3.00;;
17361;SDS011;8798;51.938;4.348;2022-09-03T21:53:20;4.30;;;2.85;;
17361;SDS011;8798;51.938;4.348;2022-09-03T21:56:04;5.90;;;2.63;;
17361;SDS011;8798;51.938;4.348;2022-09-03T21:59:03;4.85;;;2.90;;
17361;SDS011;8798;51.938;4.348;2022-09-03T22:01:42;3.28;;;2.60;;
17361;SDS011;8798;51.938;4.348;2022-09-03T22:04:44;4.18;;;2.75;;
17361;SDS011;8798;51.938;4.348;2022-09-03T22:07:21;4.00;;;2.80;;
17361;SDS011;8798;51.938;4.348;2022-09-03T22:10:01;4.05;;;2.53;;
17361;SDS011;8798;51.938;4.348;2022-09-03T22:12:41;7.43;;;3.20;;
17361;SDS011;8798;51.938;4.348;2022-09-03T22:15:28;4.55;;;2.90;;
17361;SDS011;8798;51.938;4.348;2022-09-03T22:18:01;5.47;;;2.72;;
17361;SDS011;8798;51.938;4.348;2022-09-03T22:20:54;5.75;;;3.22;;
17361;SDS011;8798;51.938;4.348;2022-09-03T22:23:38;4.68;;;2.97;;
17361;SDS011;8798;51.938;4.348;2022-09-03T22:26:29;4.72;;;3.05;;
17361;SDS011;8798;51.938;4.348;2022-09-03T22:29:13;4.30;;;3.20;;
17361;SDS011;8798;51.938;4.348;2022-09-03T22:31:52;4.72;;;3.38;;
17361;SDS011;8798;51.938;4.348;2022-09-03T22:34:32;4.40;;;3.25;;
17361;SDS011;8798;51.938;4.348;2022-09-03T22:37:12;4.82;;;3.40;;
17361;SDS011;8798;51.938;4.348;2022-09-03T22:39:50;7.88;;;4.10;;
17361;SDS011;8798;51.938;4.348;2022-09-03T22:42:32;7.20;;;3.65;;
17361;SDS011;8798;51.938;4.348;2022-09-03T22:45:21;5.75;;;3.60;;
17361;SDS011;8798;51.938;4.348;2022-09-03T22:48:12;6.68;;;3.80;;
17361;SDS011;8798;51.938;4.348;2022-09-03T22:50:50;4.35;;;3.47;;
17361;SDS011;8798;51.938;4.348;2022-09-03T22:53:35;6.53;;;3.88;;
17361;SDS011;8798;51.938;4.348;2022-09-03T22:56:20;5.32;;;3.50;;
17361;SDS011;8798;51.938;4.348;2022-09-03T22:58:51;5.93;;;3.65;;
17361;SDS011;8798;51.938;4.348;2022-09-03T23:01:28;4.10;;;3.45;;
17361;SDS011;8798;51.938;4.348;2022-09-03T23:04:05;6.00;;;3.58;;
17361;SDS011;8798;51.938;4.348;2022-09-03T23:06:44;7.07;;;4.10;;
17361;SDS011;8798;51.938;4.348;2022-09-03T23:09:23;7.40;;;4.10;;
17361;SDS011;8798;51.938;4.348;2022-09-03T23:12:06;5.63;;;3.90;;
17361;SDS011;8798;51.938;4.348;2022-09-03T23:14:48;4.03;;;3.63;;
17361;SDS011;8798;51.938;4.348;2022-09-03T23:17:32;4.80;;;4.10;;
17361;SDS011;8798;51.938;4.348;2022-09-03T23:20:11;5.07;;;3.60;;
17361;SDS011;8798;51.938;4.348;2022-09-03T23:22:50;5.95;;;3.75;;
17361;SDS011;8798;51.938;4.348;2022-09-03T23:25:34;6.72;;;3.63;;
17361;SDS011;8798;51.938;4.348;2022-09-03T23:28:13;5.15;;;3.53;;
17361;SDS011;8798;51.938;4.348;2022-09-03T23:30:51;4.80;;;3.60;;
17361;SDS011;8798;51.938;4.348;2022-09-03T23:33:24;4.80;;;4.07;;
17361;SDS011;8798;51.938;4.348;2022-09-03T23:35:58;6.72;;;3.88;;
17361;SDS011;8798;51.938;4.348;2022-09-03T23:38:39;6.70;;;3.67;;
17361;SDS011;8798;51.938;4.348;2022-09-03T23:41:25;7.38;;;3.88;;
17361;SDS011;8798;51.938;4.348;2022-09-03T23:44:02;9.73;;;3.92;;
17361;SDS011;8798;51.938;4.348;2022-09-03T23:46:51;6.82;;;3.45;;
17361;SDS011;8798;51.938;4.348;2022-09-03T23:49:32;6.13;;;3.37;;
17361;SDS011;8798;51.938;4.348;2022-09-03T23:55:30;5.20;;;4.00;;
17361;SDS011;8798;51.938;4.348;2022-09-03T23:58:14;4.77;;;3.80;;
